Time;durP1;ratioP1;P1;durP2;ratioP2;P2;SDS_P1;SDS_P2;PMS_P1;PMS_P2;Temp;Humidity;BMP_temperature;BMP_pressure;BME280_temperature;BME280_humidity;BME280_pressure;Samples;Min_cycle;Max_cycle;Signal;HPM_P1;HPM_P2
2022/06/21 00:00:25;;;;;;;9.50;3.03;;;12.20;99.90;;;;;;5039597;28;20092;-60
2022/06/21 00:03:00;;;;;;;9.70;3.53;;;12.30;99.90;;;;;;5040099;28;20047;-59
2022/06/21 00:05:39;;;;;;;11.07;3.17;;;12.30;99.90;;;;;;5038721;28;20053;-59
2022/06/21 00:08:11;;;;;;;9.27;3.13;;;12.20;99.90;;;;;;5040588;28;20045;-60
2022/06/21 00:10:36;;;;;;;18.13;3.88;;;12.20;99.90;;;;;;5037765;28;20053;-59
2022/06/21 00:13:27;;;;;;;10.60;3.22;;;12.20;99.90;;;;;;5039784;28;20091;-60
2022/06/21 00:15:57;;;;;;;11.57;3.55;;;12.00;99.90;;;;;;5040146;28;20215;-59
2022/06/21 00:18:25;;;;;;;11.15;3.20;;;12.20;99.90;;;;;;5038880;28;20707;-60
2022/06/21 00:20:51;;;;;;;10.80;3.10;;;12.20;99.90;;;;;;5040155;28;20046;-60
2022/06/21 00:23:21;;;;;;;10.68;3.53;;;12.10;99.90;;;;;;5019915;28;20053;-60
2022/06/21 00:25:47;;;;;;;13.27;3.75;;;12.00;99.90;;;;;;5019764;28;20073;-60
2022/06/21 00:28:13;;;;;;;13.38;3.03;;;12.20;99.90;;;;;;5019679;28;20049;-59
2022/06/21 00:30:40;;;;;;;9.38;3.30;;;12.10;99.90;;;;;;5018931;28;20046;-60
2022/06/21 00:33:13;;;;;;;11.75;3.17;;;12.00;99.90;;;;;;5018700;28;20046;-60
2022/06/21 00:35:42;;;;;;;9.32;3.78;;;12.00;99.90;;;;;;5018757;28;20437;-59
2022/06/21 00:38:18;;;;;;;9.07;3.08;;;12.00;99.90;;;;;;5019885;28;20096;-60
2022/06/21 00:40:44;;;;;;;9.10;3.17;;;11.90;99.90;;;;;;5019085;28;20069;-59
2022/06/21 00:43:19;;;;;;;11.68;3.50;;;11.90;99.90;;;;;;5019332;28;20046;-60
2022/06/21 00:45:47;;;;;;;12.77;3.53;;;12.00;99.90;;;;;;5019518;28;20049;-59
2022/06/21 00:48:19;;;;;;;10.50;3.30;;;12.20;99.90;;;;;;5018668;28;20053;-60
2022/06/21 00:51:05;;;;;;;13.68;3.55;;;12.00;99.90;;;;;;5020029;28;20077;-60
2022/06/21 00:53:35;;;;;;;9.50;2.88;;;12.20;99.90;;;;;;5018795;28;20592;-60
2022/06/21 00:56:13;;;;;;;8.43;2.90;;;12.10;99.90;;;;;;5018336;28;20046;-59
2022/06/21 00:58:39;;;;;;;9.43;3.00;;;12.00;99.90;;;;;;5019792;28;20543;-59
2022/06/21 01:01:21;;;;;;;10.77;4.00;;;12.00;99.90;;;;;;5018337;28;20061;-59
2022/06/21 01:03:56;;;;;;;10.45;3.30;;;11.90;99.90;;;;;;5019940;28;20422;-59
2022/06/21 01:06:32;;;;;;;9.70;3.40;;;11.80;99.90;;;;;;5018738;28;20058;-59
2022/06/21 01:09:08;;;;;;;9.45;3.28;;;11.90;99.90;;;;;;5018915;28;20077;-60
2022/06/21 01:11:40;;;;;;;11.05;3.55;;;11.80;99.90;;;;;;5019426;28;20494;-59
2022/06/21 01:14:08;;;;;;;;;;;11.90;99.90;;;;;;5018437;28;20102;-59
2022/06/21 01:16:34;;;;;;;8.68;3.17;;;11.80;99.90;;;;;;5019792;28;19921;-59
2022/06/21 01:19:01;;;;;;;7.38;3.22;;;11.80;99.90;;;;;;5018429;28;20042;-59
2022/06/21 01:21:30;;;;;;;10.02;3.70;;;11.70;99.90;;;;;;5023027;28;20049;-59
2022/06/21 01:24:16;;;;;;;9.57;3.75;;;11.80;99.90;;;;;;5038831;28;20038;-60
2022/06/21 01:26:45;;;;;;;12.10;3.60;;;11.80;99.90;;;;;;5037894;28;20104;-60
2022/06/21 01:29:17;;;;;;;14.20;4.57;;;11.60;99.90;;;;;;5039490;28;20049;-60
2022/06/21 01:31:43;;;;;;;9.27;3.67;;;11.70;99.90;;;;;;5037642;28;20045;-60
2022/06/21 01:34:16;;;;;;;11.57;4.00;;;11.70;99.90;;;;;;5039038;28;20080;-59
2022/06/21 01:36:42;;;;;;;6.80;2.78;;;11.80;99.90;;;;;;5038387;28;20053;-60
2022/06/21 01:39:15;;;;;;;9.52;3.55;;;11.70;99.90;;;;;;5038042;28;20097;-58
2022/06/21 01:41:40;;;;;;;9.40;3.50;;;11.70;99.90;;;;;;5039316;28;20034;-58
2022/06/21 01:44:13;;;;;;;9.27;3.92;;;11.80;99.90;;;;;;5037340;28;20060;-59
2022/06/21 01:46:39;;;;;;;9.73;3.40;;;11.70;99.90;;;;;;5039075;28;20045;-59
2022/06/21 01:49:13;;;;;;;11.07;3.72;;;11.60;99.90;;;;;;5037617;28;20045;-58
2022/06/21 01:51:50;;;;;;;8.65;3.47;;;11.50;99.90;;;;;;5038509;28;20045;-58
2022/06/21 01:54:21;;;;;;;9.05;3.05;;;11.50;99.90;;;;;;5038951;28;20054;-59
2022/06/21 01:56:48;;;;;;;8.95;3.53;;;11.50;99.90;;;;;;5037546;28;20049;-59
2022/06/21 01:59:25;;;;;;;9.98;3.42;;;11.40;99.90;;;;;;5038987;28;20029;-58
2022/06/21 02:02:01;;;;;;;9.32;3.60;;;11.50;99.90;;;;;;5037731;28;20095;-58
2022/06/21 02:04:31;;;;;;;8.55;3.25;;;11.50;99.90;;;;;;5038179;28;20042;-58
2022/06/21 02:07:05;;;;;;;8.18;3.28;;;11.60;99.90;;;;;;5038725;28;20060;-58
2022/06/21 02:09:54;;;;;;;7.63;3.55;;;11.50;99.90;;;;;;5041068;28;20037;-59
2022/06/21 02:12:20;;;;;;;10.95;3.80;;;11.40;99.90;;;;;;5038419;28;20038;-59
2022/06/21 02:14:54;;;;;;;10.93;3.90;;;11.40;99.90;;;;;;5041154;28;20048;-59
2022/06/21 02:17:30;;;;;;;10.48;4.40;;;11.40;99.90;;;;;;5041784;28;20049;-59
2022/06/21 02:20:32;;;;;;;11.57;4.30;;;11.50;99.90;;;;;;5042168;28;20048;-59
2022/06/21 02:22:58;;;;;;;8.02;3.85;;;11.50;99.90;;;;;;5017466;28;20058;-58
2022/06/21 02:25:26;;;;;;;7.07;3.50;;;11.50;99.90;;;;;;5022514;28;20563;-59
2022/06/21 02:28:01;;;;;;;10.55;4.18;;;11.30;99.90;;;;;;5021568;28;20100;-58
2022/06/21 02:30:29;;;;;;;9.13;4.55;;;11.40;99.90;;;;;;5021511;28;20093;-59
2022/06/21 02:32:57;;;;;;;8.15;3.88;;;11.40;99.90;;;;;;5022226;28;20050;-59
2022/06/21 02:35:34;;;;;;;13.80;5.45;;;11.50;99.90;;;;;;5021023;28;20053;-59
2022/06/21 02:38:03;;;;;;;11.18;4.90;;;11.50;99.90;;;;;;5020912;28;20114;-60
2022/06/21 02:40:33;;;;;;;8.13;4.78;;;11.50;99.90;;;;;;5021169;28;20042;-60
2022/06/21 02:43:04;;;;;;;10.85;5.05;;;11.50;99.90;;;;;;5021587;28;20042;-60
2022/06/21 02:45:46;;;;;;;10.85;5.05;;;11.60;99.90;;;;;;5021603;28;20061;-60
2022/06/21 02:48:19;;;;;;;13.48;6.22;;;11.60;99.90;;;;;;5020719;28;20046;-57
2022/06/21 02:50:53;;;;;;;13.45;5.22;;;11.50;99.90;;;;;;5022080;28;20048;-59
2022/06/21 02:53:27;;;;;;;13.90;5.22;;;11.50;99.90;;;;;;5020833;28;20046;-59
2022/06/21 02:56:13;;;;;;;10.80;4.95;;;11.50;99.90;;;;;;5020052;28;20046;-59
2022/06/21 02:58:51;;;;;;;10.73;5.13;;;11.60;99.90;;;;;;5021816;28;20045;-59
2022/06/21 03:01:37;;;;;;;12.25;5.20;;;11.60;99.90;;;;;;5020419;28;20038;-58
2022/06/21 03:04:04;;;;;;;10.73;5.65;;;11.70;99.90;;;;;;5021624;28;20046;-59
2022/06/21 03:06:33;;;;;;;12.38;5.45;;;11.70;99.90;;;;;;5020951;28;20058;-58
2022/06/21 03:09:06;;;;;;;9.85;5.47;;;11.70;99.90;;;;;;5020814;28;20041;-58
2022/06/21 03:11:36;;;;;;;9.18;5.20;;;11.70;99.90;;;;;;5021595;28;20109;-59
2022/06/21 03:14:08;;;;;;;11.40;5.30;;;11.70;99.90;;;;;;5019945;28;20034;-58
2022/06/21 03:16:34;;;;;;;10.25;5.20;;;11.80;99.90;;;;;;5021566;28;20046;-59
2022/06/21 03:19:03;;;;;;;11.60;5.28;;;11.90;99.90;;;;;;5019493;28;20053;-59
2022/06/21 03:21:32;;;;;;;10.93;5.30;;;11.70;99.90;;;;;;5025309;28;20037;-59
2022/06/21 03:24:01;;;;;;;10.88;5.38;;;12.00;99.90;;;;;;5040800;28;20042;-59
2022/06/21 03:26:28;;;;;;;11.18;5.22;;;11.90;99.90;;;;;;5039754;28;20049;-59
2022/06/21 03:28:54;;;;;;;12.40;5.70;;;11.80;99.90;;;;;;5041211;28;20044;-59
2022/06/21 03:31:31;;;;;;;9.82;5.18;;;12.00;99.90;;;;;;5039473;28;20060;-58
2022/06/21 03:34:09;;;;;;;10.90;5.22;;;11.90;99.90;;;;;;5040868;28;20061;-59
2022/06/21 03:36:35;;;;;;;13.48;5.47;;;12.00;99.90;;;;;;5040338;28;20506;-59
2022/06/21 03:39:04;;;;;;;11.40;5.70;;;11.90;99.90;;;;;;5040025;28;20059;-59
2022/06/21 03:41:43;;;;;;;11.38;5.88;;;12.00;99.90;;;;;;5040699;28;20097;-59
2022/06/21 03:44:29;;;;;;;13.32;7.18;;;12.00;99.90;;;;;;5039240;28;20050;-57
2022/06/21 03:47:10;;;;;;;10.40;6.50;;;12.10;99.90;;;;;;5040368;28;20073;-59
2022/06/21 03:49:38;;;;;;;10.50;5.70;;;11.90;99.90;;;;;;5040342;28;20489;-59
2022/06/21 03:52:09;;;;;;;13.13;6.13;;;11.90;99.90;;;;;;5039356;28;20037;-59
2022/06/21 03:54:46;;;;;;;11.40;6.22;;;11.90;99.90;;;;;;5040788;28;20097;-59
2022/06/21 03:57:21;;;;;;;9.20;5.80;;;11.90;99.90;;;;;;5038996;28;20044;-57
2022/06/21 03:59:55;;;;;;;10.85;6.25;;;11.90;99.90;;;;;;5040241;28;20056;-59
2022/06/21 04:03:09;;;;;;;12.00;5.70;;;12.00;99.90;;;;;;5039692;28;20448;-55
2022/06/21 04:05:46;;;;;;;12.45;5.97;;;12.10;99.90;;;;;;4996781;28;20105;-59
2022/06/21 04:08:23;;;;;;;10.73;5.97;;;12.10;99.90;;;;;;5038620;28;20093;-60
2022/06/21 04:10:52;;;;;;;10.18;5.93;;;12.10;99.90;;;;;;5039271;28;20100;-59
2022/06/21 04:13:40;;;;;;;10.02;5.63;;;12.00;99.90;;;;;;5039291;28;20056;-58
2022/06/21 04:16:19;;;;;;;8.48;6.03;;;11.90;99.90;;;;;;5036074;28;20049;-59
2022/06/21 04:19:01;;;;;;;15.95;6.60;;;12.00;99.90;;;;;;5039039;28;20049;-58
2022/06/21 04:21:35;;;;;;;9.23;5.25;;;12.00;99.90;;;;;;5035596;28;20129;-60
2022/06/21 04:24:12;;;;;;;12.45;6.20;;;12.00;99.90;;;;;;5020050;28;20046;-59
2022/06/21 04:26:53;;;;;;;11.05;6.20;;;12.00;99.90;;;;;;5018841;28;20085;-59
2022/06/21 04:29:33;;;;;;;11.70;6.23;;;12.00;99.90;;;;;;5020370;28;20046;-59
2022/06/21 04:32:08;;;;;;;12.48;6.20;;;12.00;99.90;;;;;;5019108;28;20380;-59
2022/06/21 04:34:49;;;;;;;12.00;6.90;;;12.00;99.90;;;;;;5019144;28;20088;-59
2022/06/21 04:37:28;;;;;;;12.13;7.22;;;12.00;99.90;;;;;;5020097;28;20049;-59
2022/06/21 04:40:23;;;;;;;12.48;7.07;;;12.20;99.90;;;;;;5018515;28;20050;-59
2022/06/21 04:43:01;;;;;;;12.75;6.32;;;12.20;99.90;;;;;;5016381;28;20054;-59
2022/06/21 04:45:58;;;;;;;10.88;6.47;;;12.20;99.90;;;;;;5019542;28;20042;-59
2022/06/21 04:48:45;;;;;;;9.55;7.10;;;12.30;99.90;;;;;;5017084;28;20046;-59
2022/06/21 04:51:16;;;;;;;11.63;6.70;;;12.40;99.90;;;;;;5019729;28;20097;-59
2022/06/21 04:53:48;;;;;;;12.95;6.50;;;12.60;99.90;;;;;;5019564;28;20049;-59
2022/06/21 04:56:25;;;;;;;10.15;6.25;;;12.70;99.90;;;;;;5018640;28;20561;-59
2022/06/21 04:58:51;;;;;;;12.85;7.20;;;12.80;99.90;;;;;;5020032;28;20037;-59
2022/06/21 05:01:30;;;;;;;11.80;6.78;;;12.90;99.90;;;;;;5018243;28;20038;-58
2022/06/21 05:04:13;;;;;;;9.27;5.93;;;13.10;99.90;;;;;;5019720;28;20042;-59
2022/06/21 05:06:40;;;;;;;11.98;6.72;;;12.90;99.90;;;;;;5019145;28;20049;-58
2022/06/21 05:09:06;;;;;;;11.30;6.80;;;13.10;99.90;;;;;;5017072;28;20053;-59
2022/06/21 05:11:32;;;;;;;15.52;6.60;;;13.20;99.90;;;;;;5019594;28;20053;-59
2022/06/21 05:13:59;;;;;;;11.30;6.55;;;13.40;99.90;;;;;;5018082;28;20073;-59
2022/06/21 05:16:39;;;;;;;15.02;7.05;;;13.50;99.90;;;;;;5019774;28;20034;-58
2022/06/21 05:19:12;;;;;;;12.52;6.60;;;13.40;99.90;;;;;;5017327;28;20041;-54
2022/06/21 05:21:43;;;;;;;11.85;6.35;;;13.50;99.90;;;;;;5024060;28;20079;-58
2022/06/21 05:24:10;;;;;;;11.82;6.60;;;13.50;99.90;;;;;;5039018;28;20038;-58
2022/06/21 05:26:47;;;;;;;11.30;6.32;;;13.40;99.90;;;;;;5037653;28;20049;-58
2022/06/21 05:29:21;;;;;;;13.75;6.45;;;13.50;99.90;;;;;;5039655;28;20129;-58
2022/06/21 05:31:51;;;;;;;14.95;6.63;;;13.60;99.90;;;;;;5038045;28;20061;-58
2022/06/21 05:34:25;;;;;;;11.93;6.53;;;13.70;99.90;;;;;;5038559;28;20135;-58
2022/06/21 05:37:01;;;;;;;11.30;6.75;;;13.80;99.90;;;;;;5038823;28;20091;-58
2022/06/21 05:39:32;;;;;;;12.18;6.90;;;13.80;99.90;;;;;;5037740;28;20105;-59
2022/06/21 05:42:01;;;;;;;11.85;6.85;;;13.70;99.90;;;;;;5039229;28;20041;-59
2022/06/21 05:44:34;;;;;;;11.55;7.40;;;14.00;99.90;;;;;;5041233;28;20053;-59
2022/06/21 05:47:20;;;;;;;10.30;6.00;;;14.10;99.90;;;;;;5042471;28;20092;-59
2022/06/21 05:49:47;;;;;;;10.82;6.25;;;14.00;99.90;;;;;;5042954;28;20045;-59
2022/06/21 05:52:24;;;;;;;12.68;6.90;;;14.20;99.90;;;;;;5041294;28;20062;-59
2022/06/21 05:55:00;;;;;;;11.77;7.07;;;14.30;99.90;;;;;;5042923;28;20045;-60
2022/06/21 05:57:40;;;;;;;12.10;6.70;;;14.50;99.90;;;;;;5041556;28;20049;-59
2022/06/21 06:00:16;;;;;;;10.70;6.97;;;14.50;99.90;;;;;;5042029;28;20045;-59
2022/06/21 06:02:48;;;;;;;11.38;6.25;;;14.30;99.90;;;;;;5042300;28;20049;-59
2022/06/21 06:05:25;;;;;;;16.17;6.93;;;14.50;99.90;;;;;;5041023;28;20053;-59
2022/06/21 06:07:56;;;;;;;9.35;3.47;;;14.70;99.90;;;;;;5042584;28;20049;-59
2022/06/21 06:10:24;;;;;;;10.00;5.75;;;14.50;99.90;;;;;;5041455;28;20037;-58
2022/06/21 06:12:56;;;;;;;11.18;5.13;;;14.40;99.90;;;;;;5041869;28;20053;-59
2022/06/21 06:15:40;;;;;;;14.05;5.90;;;14.50;99.90;;;;;;5041971;28;20072;-58
2022/06/21 06:18:12;;;;;;;10.98;5.35;;;14.50;99.90;;;;;;5040844;28;20125;-58
2022/06/21 06:20:49;;;;;;;11.35;5.25;;;14.50;99.90;;;;;;5042596;28;20107;-59
2022/06/21 06:23:43;;;;;;;10.45;6.20;;;14.50;99.90;;;;;;5022262;28;20104;-59
2022/06/21 06:26:17;;;;;;;13.10;6.32;;;14.50;99.90;;;;;;5021360;28;20049;-59
2022/06/21 06:29:01;;;;;;;14.13;5.38;;;14.60;99.90;;;;;;5021100;28;20050;-59
2022/06/21 06:32:07;;;;;;;7.35;3.90;;;14.70;99.90;;;;;;5020869;28;20100;-59
2022/06/21 06:34:39;;;;;;;12.40;5.95;;;14.70;99.90;;;;;;5008437;28;20096;-58
2022/06/21 06:37:06;;;;;;;;;;;14.70;99.90;;;;;;5022608;28;20096;-58
2022/06/21 06:39:35;;;;;;;9.40;5.05;;;14.80;99.90;;;;;;5020932;28;20511;-59
2022/06/21 06:42:12;;;;;;;10.55;5.03;;;14.80;99.90;;;;;;5022162;28;20058;-58
2022/06/21 06:44:47;;;;;;;9.80;4.15;;;14.70;99.90;;;;;;5020905;28;20118;-58
2022/06/21 06:47:28;;;;;;;8.77;4.55;;;14.60;99.90;;;;;;5021212;28;20046;-58
2022/06/21 06:50:03;;;;;;;11.50;4.72;;;14.70;99.90;;;;;;5021973;28;20040;-58
2022/06/21 06:52:54;;;;;;;11.93;4.15;;;14.60;99.90;;;;;;5020602;28;20042;-59
2022/06/21 06:55:26;;;;;;;13.23;5.78;;;14.60;99.90;;;;;;5013386;28;20057;-59
2022/06/21 06:57:57;;;;;;;9.45;5.03;;;14.50;99.90;;;;;;5021145;28;20046;-58
2022/06/21 07:00:36;;;;;;;9.05;4.68;;;14.50;99.90;;;;;;5020732;28;20042;-58
2022/06/21 07:03:09;;;;;;;11.07;5.00;;;14.60;99.90;;;;;;5021751;28;20102;-59
2022/06/21 07:05:45;;;;;;;10.07;5.47;;;14.70;99.90;;;;;;5020115;28;20084;-59
2022/06/21 07:08:21;;;;;;;14.77;5.25;;;14.80;99.90;;;;;;5021286;28;20677;-60
2022/06/21 07:10:49;;;;;;;10.27;4.43;;;15.00;99.90;;;;;;5019760;28;20054;-59
2022/06/21 07:13:15;;;;;;;9.27;4.80;;;15.40;99.90;;;;;;5020592;28;20100;-59
2022/06/21 07:15:44;;;;;;;11.45;5.30;;;15.10;99.90;;;;;;5021221;28;20050;-59
2022/06/21 07:18:16;;;;;;;9.27;3.63;;;15.20;99.90;;;;;;5018610;28;20050;-57
2022/06/21 07:20:43;;;;;;;;;;;15.20;99.90;;;;;;5022149;28;20053;-59
2022/06/21 07:23:14;;;;;;;8.15;3.97;;;15.30;99.90;;;;;;5038126;28;19932;-59
2022/06/21 07:25:42;;;;;;;9.43;4.30;;;15.20;99.90;;;;;;5040724;28;20064;-59
2022/06/21 07:28:35;;;;;;;11.82;5.00;;;15.10;99.90;;;;;;5040844;28;20041;-56
2022/06/21 07:31:10;;;;;;;11.27;3.95;;;15.20;99.90;;;;;;5039690;28;20075;-59
2022/06/21 07:33:44;;;;;;;7.80;4.10;;;15.60;99.90;;;;;;5041095;28;20190;-59
2022/06/21 07:36:19;;;;;;;10.20;4.07;;;15.90;99.90;;;;;;5039935;28;20049;-57
2022/06/21 07:38:56;;;;;;;9.50;4.32;;;16.10;99.90;;;;;;5040233;28;20041;-58
2022/06/21 07:41:35;;;;;;;10.27;4.60;;;16.20;99.90;;;;;;5040863;28;20085;-59
2022/06/21 07:44:10;;;;;;;10.65;4.30;;;16.30;99.90;;;;;;5039258;28;20045;-59
2022/06/21 07:46:52;;;;;;;9.93;4.05;;;15.80;99.90;;;;;;5040727;28;20440;-59
2022/06/21 07:49:24;;;;;;;10.80;4.90;;;15.50;99.90;;;;;;5039999;28;20077;-59
2022/06/21 07:51:54;;;;;;;10.57;3.95;;;15.40;99.90;;;;;;5039677;28;20059;-59
2022/06/21 07:54:27;;;;;;;9.93;4.68;;;15.40;99.90;;;;;;5040421;28;20394;-59
2022/06/21 07:56:57;;;;;;;9.90;4.50;;;15.30;99.90;;;;;;5039183;28;20486;-59
2022/06/21 07:59:34;;;;;;;9.25;4.57;;;15.60;99.90;;;;;;5040508;28;20049;-59
2022/06/21 08:07:50;;;;;;;11.10;3.90;;;16.40;99.90;;;;;;5040458;28;20038;-58
2022/06/21 08:10:46;;;;;;;11.45;5.60;;;16.40;99.90;;;;;;5039040;28;20034;-58
2022/06/21 08:13:12;;;;;;;11.70;5.57;;;16.10;99.90;;;;;;5037795;28;20105;-58
2022/06/21 08:15:55;;;;;;;10.50;6.22;;;16.50;99.90;;;;;;5039899;28;20095;-59
2022/06/21 08:18:29;;;;;;;11.90;6.13;;;16.30;99.90;;;;;;5037271;28;20053;-59
2022/06/21 08:21:08;;;;;;;10.13;6.03;;;16.10;99.90;;;;;;5039935;28;20041;-59
2022/06/21 08:23:37;;;;;;;10.98;5.72;;;15.90;99.90;;;;;;5019553;28;20518;-58
2022/06/21 08:26:14;;;;;;;9.20;5.28;;;15.70;99.90;;;;;;5019138;28;20049;-58
2022/06/21 08:28:43;;;;;;;9.70;4.85;;;15.60;99.90;;;;;;5020142;28;20050;-59
2022/06/21 08:31:23;;;;;;;12.27;5.10;;;15.70;99.90;;;;;;5018563;28;20054;-59
2022/06/21 08:34:00;;;;;;;9.40;4.78;;;16.20;99.90;;;;;;5019893;28;20309;-59
2022/06/21 08:36:30;;;;;;;9.63;4.40;;;16.80;99.90;;;;;;5019638;28;20074;-59
2022/06/21 08:38:58;;;;;;;11.05;5.22;;;16.80;99.90;;;;;;5018988;28;20053;-59
2022/06/21 08:41:57;;;;;;;9.45;4.57;;;16.70;99.90;;;;;;5020073;28;20060;-59
2022/06/21 08:44:31;;;;;;;8.60;4.40;;;16.80;99.90;;;;;;5018312;28;20053;-58
2022/06/21 08:47:15;;;;;;;8.20;4.25;;;17.20;99.90;;;;;;5019626;28;20049;-59
2022/06/21 08:49:59;;;;;;;7.80;4.05;;;17.30;99.90;;;;;;5019768;28;20046;-59
2022/06/21 08:52:55;;;;;;;10.65;3.78;;;17.60;99.90;;;;;;5018427;28;20522;-59
2022/06/21 08:55:38;;;;;;;8.00;3.60;;;18.00;99.90;;;;;;5019495;28;20081;-59
2022/06/21 08:58:14;;;;;;;9.15;3.92;;;17.50;99.90;;;;;;5019363;28;20061;-58
2022/06/21 09:00:44;;;;;;;10.10;4.28;;;17.00;99.90;;;;;;5018299;28;20505;-59
2022/06/21 09:03:17;;;;;;;12.93;3.63;;;16.90;99.90;;;;;;5020093;28;20038;-59
2022/06/21 09:06:14;;;;;;;7.30;3.47;;;17.20;99.90;;;;;;5018026;28;20061;-58
2022/06/21 09:08:52;;;;;;;10.13;3.65;;;17.70;99.90;;;;;;5014566;28;20053;-59
2022/06/21 09:11:17;;;;;;;8.63;3.15;;;17.90;99.90;;;;;;5019798;28;20081;-59
2022/06/21 09:13:46;;;;;;;7.63;3.13;;;18.00;99.90;;;;;;5018277;28;20049;-59
2022/06/21 09:16:17;;;;;;;10.48;3.35;;;17.90;99.90;;;;;;5018157;28;20049;-59
2022/06/21 09:19:20;;;;;;;9.65;3.25;;;17.70;99.90;;;;;;5021035;28;20046;-59
2022/06/21 09:22:03;;;;;;;13.05;4.00;;;17.40;99.90;;;;;;5028106;28;20054;-59
2022/06/21 09:24:37;;;;;;;;;;;17.60;99.90;;;;;;5044272;28;20046;-59
2022/06/21 09:27:17;;;;;;;9.85;3.95;;;17.80;99.90;;;;;;5041957;28;20428;-59
2022/06/21 09:29:49;;;;;;;6.57;2.45;;;17.90;99.90;;;;;;5043046;28;20045;-59
2022/06/21 09:32:30;;;;;;;7.05;2.90;;;17.70;99.90;;;;;;5042659;28;20108;-59
2022/06/21 09:35:17;;;;;;;6.90;3.30;;;18.20;99.90;;;;;;5041760;28;20045;-59
2022/06/21 09:38:09;;;;;;;8.93;3.78;;;18.30;99.90;;;;;;5043066;28;20449;-59
2022/06/21 09:40:56;;;;;;;7.65;2.45;;;18.10;99.90;;;;;;5031796;28;20115;-59
2022/06/21 09:43:40;;;;;;;6.85;2.40;;;18.60;99.90;;;;;;5042023;28;20413;-60
2022/06/21 09:46:09;;;;;;;7.45;2.92;;;19.00;99.90;;;;;;5042744;28;20046;-59
2022/06/21 09:48:49;;;;;;;9.15;2.95;;;19.00;99.90;;;;;;5041602;28;20037;-59
2022/06/21 09:51:36;;;;;;;8.52;2.97;;;19.00;99.90;;;;;;5042314;28;20105;-59
2022/06/21 09:54:33;;;;;;;5.75;2.20;;;18.70;99.90;;;;;;5042664;28;20041;-60
2022/06/21 09:57:21;;;;;;;8.25;2.85;;;18.60;99.90;;;;;;5041577;28;20052;-59
2022/06/21 09:59:55;;;;;;;7.80;2.63;;;18.90;99.90;;;;;;5039097;28;20053;-59
2022/06/21 10:02:38;;;;;;;7.45;3.20;;;19.10;99.90;;;;;;5042518;28;20127;-59
2022/06/21 10:05:03;;;;;;;8.70;3.20;;;19.10;99.90;;;;;;5040999;28;20506;-59
2022/06/21 10:07:55;;;;;;;6.82;2.70;;;18.90;99.90;;;;;;5042640;28;20053;-59
2022/06/21 10:10:41;;;;;;;9.73;3.73;;;18.60;99.90;;;;;;5041779;28;20666;-59
2022/06/21 10:13:24;;;;;;;9.05;3.15;;;19.00;99.90;;;;;;5041419;28;20866;-60
2022/06/21 10:16:16;;;;;;;7.47;3.03;;;18.90;99.90;;;;;;5042308;28;20080;-59
2022/06/21 10:18:44;;;;;;;7.05;2.80;;;18.90;99.90;;;;;;5041189;28;20077;-59
2022/06/21 10:21:21;;;;;;;6.32;2.55;;;18.80;99.90;;;;;;5039825;28;20092;-58
2022/06/21 10:24:20;;;;;;;6.63;2.83;;;19.10;99.90;;;;;;5020924;28;20363;-59
2022/06/21 10:27:07;;;;;;;8.38;2.53;;;19.00;99.90;;;;;;5020936;28;20041;-59
2022/06/21 10:29:47;;;;;;;7.07;2.75;;;19.00;99.90;;;;;;5021977;28;20536;-60
2022/06/21 10:32:38;;;;;;;7.85;2.70;;;18.70;99.90;;;;;;5021754;28;20050;-59
2022/06/21 10:35:16;;;;;;;9.18;2.70;;;18.30;99.90;;;;;;5020930;28;20045;-60
2022/06/21 10:38:07;;;;;;;6.78;2.33;;;18.60;99.90;;;;;;5022373;28;20052;-59
2022/06/21 10:40:50;;;;;;;7.10;2.43;;;18.90;99.90;;;;;;5021566;28;20141;-60
2022/06/21 10:43:42;;;;;;;7.05;2.50;;;19.40;99.90;;;;;;5021019;28;20293;-61
2022/06/21 10:46:19;;;;;;;6.13;2.30;;;19.40;99.90;;;;;;5022319;28;20101;-60
2022/06/21 10:49:09;;;;;;;6.70;2.80;;;19.40;99.90;;;;;;5020701;28;20034;-60
2022/06/21 10:52:00;;;;;;;6.60;2.38;;;19.40;99.90;;;;;;5021090;28;20045;-61
2022/06/21 10:54:25;;;;;;;7.05;2.22;;;19.50;99.90;;;;;;5022236;28;20073;-60
2022/06/21 10:57:29;;;;;;;8.43;2.80;;;19.20;99.90;;;;;;5020481;28;20042;-61
2022/06/21 11:03:21;;;;;;;6.82;2.42;;;18.70;99.90;;;;;;5021866;28;20513;-61
2022/06/21 11:06:20;;;;;;;7.00;2.40;;;19.00;99.90;;;;;;5020283;28;20066;-61
2022/06/21 11:09:03;;;;;;;6.57;2.30;;;19.60;99.90;;;;;;5019468;28;20050;-61
2022/06/21 11:11:55;;;;;;;6.00;2.10;;;19.70;99.90;;;;;;5021481;28;20089;-60
2022/06/21 11:14:33;;;;;;;5.65;1.92;;;20.00;99.90;;;;;;5018890;28;20049;-60
2022/06/21 11:17:27;;;;;;;9.30;2.42;;;20.10;99.90;;;;;;5021088;28;20045;-61
2022/06/21 11:20:08;;;;;;;7.15;2.00;;;19.90;99.90;;;;;;5021383;28;20045;-61
2022/06/21 11:22:41;;;;;;;9.30;2.42;;;19.80;99.90;;;;;;5033308;28;20042;-61
2022/06/21 11:25:23;;;;;;;6.20;2.35;;;20.00;99.90;;;;;;5041205;28;20037;-60
2022/06/21 11:27:54;;;;;;;;;;;20.10;99.90;;;;;;5041070;28;20056;-58
2022/06/21 11:30:41;;;;;;;6.75;2.03;;;20.10;99.90;;;;;;5039766;28;19921;-58
2022/06/21 11:33:14;;;;;;;6.95;2.08;;;20.10;99.90;;;;;;5041165;28;20468;-58
2022/06/21 11:35:52;;;;;;;6.68;1.90;;;19.90;99.90;;;;;;5039534;28;20489;-60
2022/06/21 11:38:57;;;;;;;7.65;1.95;;;20.00;99.90;;;;;;5040581;28;20520;-59
2022/06/21 11:42:04;;;;;;;7.15;2.00;;;20.10;99.90;;;;;;5039454;28;20049;-60
2022/06/21 11:44:36;;;;;;;5.47;2.10;;;20.00;99.90;;;;;;5039598;28;20128;-59
2022/06/21 11:47:09;;;;;;;7.72;2.83;;;20.00;99.90;;;;;;5039846;28;20060;-59
2022/06/21 11:49:51;;;;;;;7.43;2.22;;;20.10;99.90;;;;;;5040584;28;20049;-59
2022/06/21 11:52:35;;;;;;;7.53;2.30;;;20.20;99.90;;;;;;5039209;28;20050;-60
2022/06/21 11:55:22;;;;;;;7.43;2.05;;;19.90;99.90;;;;;;5040721;28;20042;-59
2022/06/21 11:57:51;;;;;;;7.13;1.88;;;20.30;99.90;;;;;;5039989;28;20555;-56
2022/06/21 12:00:38;;;;;;;5.82;2.30;;;20.40;99.90;;;;;;5039385;28;20081;-60
2022/06/21 12:03:04;;;;;;;6.97;2.47;;;20.50;99.90;;;;;;5040560;28;20048;-59
2022/06/21 12:06:00;;;;;;;5.63;2.10;;;20.50;99.90;;;;;;5038877;28;20077;-59
2022/06/21 12:08:54;;;;;;;5.68;1.88;;;20.60;99.90;;;;;;5039821;28;20064;-59
2022/06/21 12:11:33;;;;;;;7.13;2.28;;;20.30;99.90;;;;;;5040418;28;20057;-59
2022/06/21 12:14:11;;;;;;;6.25;2.00;;;20.00;99.90;;;;;;5038706;28;20045;-60
2022/06/21 12:16:52;;;;;;;6.93;2.22;;;20.30;99.90;;;;;;5040222;28;20053;-59
2022/06/21 12:19:22;;;;;;;5.20;2.07;;;20.40;99.90;;;;;;5039772;28;20045;-59
2022/06/21 12:21:57;;;;;;;7.28;2.05;;;20.40;99.90;;;;;;5031871;28;20289;-60
2022/06/21 12:24:26;;;;;;;9.02;2.40;;;20.80;99.90;;;;;;5020525;28;20083;-59
2022/06/21 12:26:54;;;;;;;8.10;2.15;;;20.50;99.90;;;;;;5018830;28;20054;-59
2022/06/21 12:29:22;;;;;;;6.95;1.90;;;20.90;99.90;;;;;;5020393;28;20042;-60
2022/06/21 12:31:50;;;;;;;5.63;1.90;;;20.80;99.90;;;;;;5017851;28;20034;-59
2022/06/21 12:34:24;;;;;;;5.43;2.00;;;20.90;99.90;;;;;;5019412;28;20038;-59
2022/06/21 12:36:57;;;;;;;6.25;1.80;;;20.50;99.90;;;;;;5019909;28;20058;-60
2022/06/21 12:39:36;;;;;;;6.93;2.05;;;21.00;99.90;;;;;;5018725;28;20060;-59
2022/06/21 12:42:34;;;;;;;7.55;2.45;;;21.30;99.90;;;;;;5019975;28;20056;-60
2022/06/21 12:45:00;;;;;;;8.40;2.30;;;20.90;99.90;;;;;;5019301;28;20050;-59
2022/06/21 12:47:45;;;;;;;8.02;2.17;;;20.70;99.90;;;;;;5018477;28;20610;-60
2022/06/21 12:50:51;;;;;;;5.90;2.40;;;20.70;99.90;;;;;;5019986;28;20109;-59
2022/06/21 12:53:47;;;;;;;4.63;1.90;;;21.00;99.90;;;;;;4996068;28;20053;-60
2022/06/21 12:56:36;;;;;;;7.78;2.00;;;21.30;99.90;;;;;;5018637;28;20406;-60
2022/06/21 12:59:14;;;;;;;4.38;1.67;;;21.00;99.90;;;;;;5019952;28;20046;-60
2022/06/21 13:02:19;;;;;;;6.13;2.08;;;20.80;99.90;;;;;;5018816;28;20514;-60
2022/06/21 13:05:11;;;;;;;5.78;1.83;;;21.00;99.90;;;;;;5018075;28;20502;-59
2022/06/21 13:08:02;;;;;;;7.60;1.90;;;21.00;99.90;;;;;;5019846;28;20057;-60
2022/06/21 13:10:57;;;;;;;5.10;1.88;;;21.20;99.90;;;;;;5007978;28;20062;-59
2022/06/21 13:13:42;;;;;;;6.30;2.08;;;21.40;99.90;;;;;;5018188;28;20049;-60
2022/06/21 13:16:14;;;;;;;5.97;2.03;;;21.40;99.90;;;;;;5019778;28;20042;-60
2022/06/21 13:18:48;;;;;;;6.55;2.13;;;21.50;99.90;;;;;;5018077;28;20053;-61
2022/06/21 13:21:32;;;;;;;7.15;1.80;;;21.60;99.90;;;;;;5021418;28;20042;-60
2022/06/21 13:24:03;;;;;;;6.20;1.90;;;21.20;99.90;;;;;;5039040;28;20631;-61
2022/06/21 13:26:47;;;;;;;7.03;2.08;;;21.30;99.90;;;;;;5037980;28;20041;-60
2022/06/21 13:29:38;;;;;;;5.80;1.92;;;21.30;99.90;;;;;;5039363;28;20053;-60
2022/06/21 13:32:12;;;;;;;7.50;1.98;;;20.70;99.90;;;;;;5038639;28;20046;-60
2022/06/21 13:35:04;;;;;;;6.35;1.48;;;20.80;99.90;;;;;;5037927;28;20410;-60
2022/06/21 13:37:39;;;;;;;7.85;1.88;;;20.90;99.90;;;;;;5039183;28;20088;-60
2022/06/21 13:40:06;;;;;;;6.65;2.10;;;20.60;99.90;;;;;;5038030;28;20041;-60
2022/06/21 13:42:52;;;;;;;4.70;1.77;;;20.40;99.90;;;;;;5038732;28;20038;-60